Time;durP1;ratioP1;P1;durP2;ratioP2;P2;SDS_P1;SDS_P2;PMS_P1;PMS_P2;Temp;Humidity;BMP_temperature;BMP_pressure;BME280_temperature;BME280_humidity;BME280_pressure;Samples;Min_cycle;Max_cycle;Signal;HPM_P1;HPM_P2
2024/01/21 00:00:09;;;;;;;3.80;1.60;;;-8.10;99.90;;;;;;5054380;28;20287;-77
2024/01/21 00:02:37;;;;;;;1.95;1.33;;;-8.20;99.90;;;;;;5059588;28;20236;-78
2024/01/21 00:05:04;;;;;;;3.75;2.45;;;-8.30;99.90;;;;;;5057718;28;20262;-77
2024/01/21 00:07:31;;;;;;;3.38;1.90;;;-8.30;99.90;;;;;;5060311;28;20838;-77
2024/01/21 00:09:58;;;;;;;2.95;1.67;;;-8.20;99.90;;;;;;5052293;28;20234;-77
2024/01/21 00:12:25;;;;;;;3.45;1.63;;;-8.30;99.90;;;;;;5064480;28;20253;-78
2024/01/21 00:14:52;;;;;;;3.22;2.00;;;-8.30;99.90;;;;;;5060740;28;20201;-77
2024/01/21 00:17:19;;;;;;;2.58;1.35;;;-8.30;99.90;;;;;;5055062;28;20251;-76
2024/01/21 00:19:47;;;;;;;5.30;1.30;;;-8.30;99.90;;;;;;5057552;28;20624;-77
2024/01/21 00:22:14;;;;;;;3.25;2.10;;;-8.30;99.90;;;;;;5064127;28;20227;-77
2024/01/21 00:24:41;;;;;;;2.25;1.58;;;-8.30;99.90;;;;;;5064071;28;20607;-77
2024/01/21 00:27:08;;;;;;;1.52;1.40;;;-8.30;99.90;;;;;;5060995;28;20238;-77
2024/01/21 00:29:35;;;;;;;6.20;1.38;;;-8.30;99.90;;;;;;5060771;28;20197;-77
2024/01/21 00:32:02;;;;;;;1.55;1.08;;;-8.30;99.90;;;;;;5061382;28;20230;-77
2024/01/21 00:34:28;;;;;;;1.20;1.10;;;-8.20;99.90;;;;;;5066875;28;20221;-77
2024/01/21 00:36:57;;;;;;;2.08;1.10;;;-8.10;99.90;;;;;;5058740;28;20252;-78
2024/01/21 00:39:24;;;;;;;1.20;1.00;;;-8.20;99.90;;;;;;5055512;28;20232;-78
2024/01/21 00:41:51;;;;;;;4.05;1.77;;;-8.20;99.90;;;;;;5062470;28;20252;-77
2024/01/21 00:44:18;;;;;;;2.67;1.02;;;-8.20;99.90;;;;;;5051194;28;20721;-77
2024/01/21 00:46:47;;;;;;;1.35;1.00;;;-8.30;99.90;;;;;;5057441;28;20202;-78
2024/01/21 00:49:14;;;;;;;2.17;1.15;;;-8.30;99.90;;;;;;5058749;28;20230;-78
2024/01/21 00:51:41;;;;;;;3.17;1.23;;;-8.30;99.90;;;;;;5057849;28;20206;-78
2024/01/21 00:54:09;;;;;;;2.08;1.50;;;-8.40;99.90;;;;;;5065794;28;20264;-77
2024/01/21 00:56:36;;;;;;;2.75;1.60;;;-8.40;99.90;;;;;;5063893;28;20244;-77
2024/01/21 00:59:03;;;;;;;4.05;1.30;;;-8.40;99.90;;;;;;5065972;28;20942;-77
2024/01/21 01:01:31;;;;;;;2.67;0.88;;;-8.40;99.90;;;;;;5053384;28;20211;-77
2024/01/21 01:03:58;;;;;;;1.67;1.30;;;-8.50;99.90;;;;;;5056429;28;20991;-77
2024/01/21 01:06:25;;;;;;;0.85;0.85;;;-8.50;99.90;;;;;;5065712;28;20228;-79
2024/01/21 01:08:51;;;;;;;5.75;1.42;;;-8.50;99.90;;;;;;5064399;28;20254;-77
2024/01/21 01:11:21;;;;;;;1.58;1.35;;;-8.60;99.90;;;;;;5061445;28;20206;-77
2024/01/21 01:13:48;;;;;;;0.80;0.60;;;-8.50;99.90;;;;;;5060258;28;20209;-79
2024/01/21 01:16:15;;;;;;;1.45;1.00;;;-8.60;99.90;;;;;;5065542;28;20254;-78
2024/01/21 01:18:42;;;;;;;2.00;1.83;;;-8.50;99.90;;;;;;5058933;28;20220;-77
2024/01/21 01:21:10;;;;;;;1.92;1.08;;;-8.50;99.90;;;;;;5062256;28;20745;-77
2024/01/21 01:23:37;;;;;;;1.45;1.00;;;-8.50;99.90;;;;;;5059631;28;20287;-77
2024/01/21 01:26:04;;;;;;;0.93;0.47;;;-8.50;99.90;;;;;;5050553;28;20250;-77
2024/01/21 01:28:33;;;;;;;1.05;0.50;;;-8.50;99.90;;;;;;5060734;28;20285;-77
2024/01/21 01:30:59;;;;;;;1.52;0.82;;;-8.50;99.90;;;;;;5056662;28;20301;-77
2024/01/21 01:33:26;;;;;;;2.35;0.93;;;-8.60;99.90;;;;;;5059225;28;20267;-77
2024/01/21 01:35:53;;;;;;;3.05;1.00;;;-8.60;99.90;;;;;;5056449;28;20664;-77
2024/01/21 01:38:20;;;;;;;1.13;0.70;;;-8.70;99.90;;;;;;5063221;28;20322;-76
2024/01/21 01:40:47;;;;;;;1.45;0.70;;;-8.70;99.90;;;;;;5061398;28;20241;-76
2024/01/21 01:43:14;;;;;;;2.58;1.52;;;-8.70;99.90;;;;;;5054462;28;20257;-77
2024/01/21 01:45:42;;;;;;;1.05;0.75;;;-8.80;99.90;;;;;;5059619;28;20281;-78
2024/01/21 01:48:09;;;;;;;1.23;0.70;;;-8.80;99.90;;;;;;5063124;28;20688;-78
2024/01/21 01:50:37;;;;;;;4.35;1.98;;;-8.80;99.90;;;;;;5062299;28;20232;-78
2024/01/21 01:53:04;;;;;;;1.30;0.70;;;-8.80;99.90;;;;;;5061598;28;20205;-79
2024/01/21 01:55:31;;;;;;;2.05;1.10;;;-8.90;99.90;;;;;;5065134;28;20247;-78
2024/01/21 01:57:58;;;;;;;4.65;1.70;;;-9.00;99.90;;;;;;5064692;28;20700;-78
2024/01/21 02:00:26;;;;;;;2.42;1.10;;;-8.90;99.90;;;;;;5055335;28;20245;-78
2024/01/21 02:02:54;;;;;;;2.80;1.23;;;-8.90;99.90;;;;;;5061950;28;20245;-77
2024/01/21 02:05:21;;;;;;;0.95;0.82;;;-9.00;99.90;;;;;;5057659;28;20265;-78
2024/01/21 02:07:48;;;;;;;1.63;0.80;;;-8.90;99.90;;;;;;5058068;28;20200;-78
2024/01/21 02:10:16;;;;;;;0.90;0.90;;;-9.00;99.90;;;;;;5053650;28;20231;-78
2024/01/21 02:12:43;;;;;;;1.05;0.60;;;-9.00;99.90;;;;;;5058306;28;20235;-77
2024/01/21 02:15:11;;;;;;;1.80;0.65;;;-9.00;99.90;;;;;;5062551;28;20262;-78
2024/01/21 02:17:38;;;;;;;1.23;0.80;;;-9.10;99.90;;;;;;5065779;28;20258;-77
2024/01/21 02:20:09;;;;;;;1.15;0.80;;;-9.10;99.90;;;;;;5062586;28;20205;-77
2024/01/21 02:22:38;;;;;;;0.95;0.95;;;-9.10;99.90;;;;;;5065994;28;20216;-78
2024/01/21 02:25:07;;;;;;;2.38;0.90;;;-9.00;99.90;;;;;;5064855;28;20279;-78
2024/01/21 02:27:34;;;;;;;1.27;0.70;;;-8.80;99.90;;;;;;5062683;28;20275;-78
2024/01/21 02:30:02;;;;;;;1.20;0.70;;;-9.00;99.90;;;;;;5057021;28;20198;-78
2024/01/21 02:32:29;;;;;;;0.98;0.95;;;-9.00;99.90;;;;;;5063306;28;20201;-77
2024/01/21 02:34:56;;;;;;;5.13;1.23;;;-9.10;99.90;;;;;;5060010;28;20724;-78
2024/01/21 02:37:23;;;;;;;2.53;0.80;;;-9.20;99.90;;;;;;5062298;28;20686;-78
2024/01/21 02:39:50;;;;;;;3.55;0.80;;;-9.20;99.90;;;;;;5051719;28;20908;-78
2024/01/21 02:42:18;;;;;;;0.65;0.65;;;-9.30;99.90;;;;;;5059353;28;20228;-78
2024/01/21 02:44:45;;;;;;;0.88;0.70;;;-9.30;99.90;;;;;;5050113;28;20292;-78
2024/01/21 02:47:12;;;;;;;3.10;1.30;;;-9.40;99.90;;;;;;5073046;28;20267;-78
2024/01/21 02:49:39;;;;;;;1.73;0.93;;;-9.30;99.90;;;;;;5074246;28;20219;-77
2024/01/21 02:52:06;;;;;;;1.58;1.13;;;-9.30;99.90;;;;;;5059777;28;20250;-78
2024/01/21 02:54:33;;;;;;;4.70;1.77;;;-9.40;99.90;;;;;;5066684;28;20201;-77
2024/01/21 02:57:00;;;;;;;2.25;1.60;;;-9.40;99.90;;;;;;5061631;28;20547;-77
2024/01/21 02:59:29;;;;;;;1.70;1.40;;;-9.40;99.90;;;;;;5058303;28;20190;-79
2024/01/21 03:01:57;;;;;;;1.38;0.90;;;-9.30;99.90;;;;;;5065935;28;20200;-79
2024/01/21 03:04:24;;;;;;;4.97;1.00;;;-9.30;99.90;;;;;;5061362;28;20305;-79
2024/01/21 03:06:51;;;;;;;2.10;1.00;;;-9.20;99.90;;;;;;5064926;28;20269;-79
2024/01/21 03:09:18;;;;;;;2.05;0.70;;;-9.20;99.90;;;;;;5065039;28;20200;-78
2024/01/21 03:11:45;;;;;;;2.00;0.95;;;-9.30;99.90;;;;;;5062445;28;20280;-77
2024/01/21 03:14:12;;;;;;;0.68;0.40;;;-9.30;99.90;;;;;;5066794;28;20659;-79
2024/01/21 03:16:40;;;;;;;2.45;0.85;;;-9.30;99.90;;;;;;5055197;28;20286;-79
2024/01/21 03:19:07;;;;;;;1.20;0.77;;;-9.30;99.90;;;;;;5051672;28;20205;-79
2024/01/21 03:21:34;;;;;;;1.77;0.80;;;-9.30;99.90;;;;;;5063593;28;20232;-80
2024/01/21 03:24:00;;;;;;;2.15;0.65;;;-9.30;99.90;;;;;;5057183;28;20314;-79
2024/01/21 03:26:27;;;;;;;1.58;0.90;;;-9.40;99.90;;;;;;5056535;28;20212;-77
2024/01/21 03:28:54;;;;;;;3.22;1.10;;;-9.40;99.90;;;;;;5059236;28;20277;-77
2024/01/21 03:31:21;;;;;;;0.75;0.63;;;-9.50;99.90;;;;;;5059685;28;20267;-77
2024/01/21 03:33:50;;;;;;;1.05;0.70;;;-9.50;99.90;;;;;;5060409;28;20198;-77
2024/01/21 03:36:17;;;;;;;1.50;0.95;;;-9.50;99.90;;;;;;5061924;28;20268;-80
2024/01/21 03:38:46;;;;;;;2.40;0.85;;;-9.50;99.90;;;;;;5058511;28;20283;-77
2024/01/21 03:41:13;;;;;;;2.40;1.35;;;-9.50;99.90;;;;;;5061517;28;20228;-77
2024/01/21 03:43:40;;;;;;;2.15;1.13;;;-9.40;99.90;;;;;;5061502;28;20264;-77
2024/01/21 03:46:07;;;;;;;3.53;0.82;;;-9.40;99.90;;;;;;5054422;28;20235;-76
2024/01/21 03:48:34;;;;;;;3.90;1.63;;;-9.40;99.90;;;;;;5051558;28;20200;-77
2024/01/21 03:51:03;;;;;;;3.95;1.73;;;-9.40;99.90;;;;;;5061929;28;20199;-77
2024/01/21 03:53:30;;;;;;;2.15;1.05;;;-9.50;99.90;;;;;;5065112;28;20291;-77
2024/01/21 03:55:57;;;;;;;3.30;1.27;;;-9.60;99.90;;;;;;5064458;28;20204;-76
2024/01/21 03:58:24;;;;;;;2.25;1.73;;;-9.60;99.90;;;;;;5054018;28;20200;-77
2024/01/21 04:00:51;;;;;;;3.17;1.25;;;-9.70;99.90;;;;;;5060183;28;20228;-77
2024/01/21 04:03:18;;;;;;;3.75;2.35;;;-9.80;99.90;;;;;;5060507;28;20289;-77
2024/01/21 04:05:45;;;;;;;2.78;1.95;;;-9.80;99.90;;;;;;5065897;28;20196;-77
2024/01/21 04:08:14;;;;;;;5.25;2.40;;;-9.80;99.90;;;;;;5056581;28;20196;-77
2024/01/21 04:10:41;;;;;;;8.50;2.60;;;-9.70;99.90;;;;;;5059426;28;20209;-77
2024/01/21 04:13:08;;;;;;;4.63;2.50;;;-9.80;99.90;;;;;;5060936;28;20846;-77
2024/01/21 04:15:35;;;;;;;7.55;3.20;;;-9.70;99.90;;;;;;5065906;28;20559;-77
2024/01/21 04:18:02;;;;;;;7.30;2.83;;;-9.80;99.90;;;;;;5054885;28;20210;-77
2024/01/21 04:20:29;;;;;;;5.55;3.45;;;-9.80;99.90;;;;;;5063540;28;20272;-77
2024/01/21 04:22:56;;;;;;;6.57;3.25;;;-9.80;99.90;;;;;;5058343;28;20640;-77
2024/01/21 04:25:24;;;;;;;2.00;1.75;;;-9.80;99.90;;;;;;5065390;28;20297;-77
2024/01/21 04:27:51;;;;;;;4.65;2.42;;;-9.80;99.90;;;;;;5058525;28;20240;-77
2024/01/21 04:30:18;;;;;;;3.45;2.10;;;-9.80;99.90;;;;;;5057985;28;20823;-77
2024/01/21 04:32:45;;;;;;;3.95;2.30;;;-9.80;99.90;;;;;;5068879;28;20228;-77
2024/01/21 04:35:12;;;;;;;3.50;2.75;;;-9.80;99.90;;;;;;5065090;28;20295;-77
2024/01/21 04:37:39;;;;;;;2.45;1.90;;;-9.80;99.90;;;;;;5067200;28;20232;-77
2024/01/21 04:40:07;;;;;;;6.57;3.28;;;-9.70;99.90;;;;;;5067983;28;20265;-77
2024/01/21 04:42:35;;;;;;;4.53;2.17;;;-9.60;99.90;;;;;;5058832;28;20602;-78
2024/01/21 04:45:02;;;;;;;6.30;3.20;;;-9.50;99.90;;;;;;5059625;28;20264;-77
2024/01/21 04:47:29;;;;;;;3.80;3.10;;;-9.40;99.90;;;;;;5062497;28;20652;-77
2024/01/21 04:49:56;;;;;;;5.97;4.38;;;-9.50;99.90;;;;;;5061072;28;20301;-77
2024/01/21 04:52:23;;;;;;;5.40;4.20;;;-9.50;99.90;;;;;;5063430;28;20249;-77
2024/01/21 04:54:50;;;;;;;7.60;4.72;;;-9.50;99.90;;;;;;5054911;28;20213;-77
2024/01/21 04:57:17;;;;;;;10.18;5.93;;;-9.50;99.90;;;;;;5064139;28;20594;-77
2024/01/21 04:59:45;;;;;;;10.70;5.95;;;-9.20;99.90;;;;;;5055233;28;20290;-77
2024/01/21 05:02:12;;;;;;;10.95;6.75;;;-8.90;99.90;;;;;;5055879;28;20193;-78
2024/01/21 05:04:39;;;;;;;9.95;7.53;;;-8.80;99.90;;;;;;5059187;28;20685;-78
2024/01/21 05:07:06;;;;;;;12.95;8.70;;;-8.70;99.90;;;;;;5067654;28;20206;-78
2024/01/21 05:09:33;;;;;;;13.05;6.95;;;-8.60;99.90;;;;;;5062399;28;20267;-77
2024/01/21 05:12:00;;;;;;;14.05;7.35;;;-8.50;99.90;;;;;;5057691;28;20196;-77
2024/01/21 05:14:26;;;;;;;10.52;6.70;;;-8.60;99.90;;;;;;5063426;28;20241;-77
2024/01/21 05:16:55;;;;;;;9.85;7.28;;;-8.70;99.90;;;;;;5051232;28;20239;-77
2024/01/21 05:19:22;;;;;;;11.07;8.73;;;-8.90;99.90;;;;;;5061595;28;20241;-77
2024/01/21 05:21:49;;;;;;;10.15;8.27;;;-8.90;99.90;;;;;;5071028;28;20240;-77
2024/01/21 05:24:15;;;;;;;10.55;7.88;;;-8.90;99.90;;;;;;5084221;28;20247;-77
2024/01/21 05:26:46;;;;;;;9.88;6.68;;;-9.00;99.90;;;;;;5069525;28;20202;-77
2024/01/21 05:29:13;;;;;;;11.63;6.70;;;-9.20;99.90;;;;;;5066989;28;20698;-77
2024/01/21 05:31:40;;;;;;;13.48;7.43;;;-9.30;99.90;;;;;;5064352;28;20294;-77
2024/01/21 05:34:08;;;;;;;9.23;6.93;;;-9.40;99.90;;;;;;5065803;28;20674;-77
2024/01/21 05:36:35;;;;;;;9.35;5.65;;;-9.30;99.90;;;;;;5062062;28;20219;-77
2024/01/21 05:39:03;;;;;;;8.48;6.00;;;-9.10;99.90;;;;;;5073310;28;20204;-76
2024/01/21 05:41:30;;;;;;;8.82;6.47;;;-9.00;99.90;;;;;;5062590;28;20269;-77
2024/01/21 05:43:57;;;;;;;8.90;7.28;;;-9.10;99.90;;;;;;5066312;28;20298;-77
2024/01/21 05:46:24;;;;;;;14.45;8.18;;;-9.20;99.90;;;;;;5064536;28;20201;-77
2024/01/21 05:48:51;;;;;;;12.93;8.52;;;-9.20;99.90;;;;;;5063338;28;20615;-77
2024/01/21 05:51:20;;;;;;;10.05;6.90;;;-9.20;99.90;;;;;;5052844;28;20198;-78
2024/01/21 05:53:47;;;;;;;8.73;7.50;;;-9.30;99.90;;;;;;5055400;28;21071;-77
2024/01/21 05:56:17;;;;;;;9.95;6.60;;;-9.40;99.90;;;;;;5055942;28;20219;-77
2024/01/21 05:58:44;;;;;;;10.68;7.00;;;-9.50;99.90;;;;;;5056826;28;20287;-77
2024/01/21 06:01:11;;;;;;;6.32;4.57;;;-9.50;99.90;;;;;;5046701;28;20694;-77
2024/01/21 06:03:38;;;;;;;6.32;4.75;;;-9.70;99.90;;;;;;5054912;28;20236;-77
2024/01/21 06:06:05;;;;;;;17.85;7.85;;;-9.70;99.90;;;;;;5057064;28;20786;-77
2024/01/21 06:08:33;;;;;;;8.95;6.93;;;-9.80;99.90;;;;;;5059358;28;20201;-83
2024/01/21 06:11:00;;;;;;;9.30;7.55;;;-10.00;99.90;;;;;;5050767;28;20204;-76
2024/01/21 06:13:27;;;;;;;16.98;10.15;;;-10.00;99.90;;;;;;5049686;28;20197;-76
2024/01/21 06:15:55;;;;;;;8.60;6.28;;;-10.10;99.90;;;;;;5048962;28;20294;-76
2024/01/21 06:18:22;;;;;;;6.07;5.28;;;-10.20;99.90;;;;;;5053506;28;20278;-76
2024/01/21 06:20:49;;;;;;;6.32;4.53;;;-10.20;99.90;;;;;;5060954;28;20230;-76
2024/01/21 06:23:16;;;;;;;11.88;5.45;;;-10.30;99.90;;;;;;5056145;28;20285;-76
2024/01/21 06:25:44;;;;;;;17.42;4.97;;;-10.30;99.90;;;;;;5058236;28;20260;-76
2024/01/21 06:28:11;;;;;;;5.22;3.58;;;-10.30;99.90;;;;;;5060097;28;20259;-76
2024/01/21 06:30:38;;;;;;;4.85;2.50;;;-10.30;99.90;;;;;;5055406;28;20236;-76
2024/01/21 06:33:06;;;;;;;3.78;2.05;;;-10.40;99.90;;;;;;5059137;28;20273;-76
2024/01/21 06:35:33;;;;;;;4.38;2.42;;;-10.30;99.90;;;;;;5055287;28;20246;-76
2024/01/21 06:37:59;;;;;;;4.75;2.42;;;-10.30;99.90;;;;;;5061646;28;20219;-76
2024/01/21 06:40:26;;;;;;;4.95;2.50;;;-10.30;99.90;;;;;;5046652;28;20222;-77
2024/01/21 06:42:55;;;;;;;2.60;1.90;;;-10.30;99.90;;;;;;5048240;28;20231;-77
2024/01/21 06:45:23;;;;;;;2.20;1.33;;;-10.30;99.90;;;;;;5057446;28;20249;-76
2024/01/21 06:47:50;;;;;;;3.78;2.13;;;-10.20;99.90;;;;;;5054253;28;20197;-76
2024/01/21 06:50:17;;;;;;;3.55;2.22;;;-10.20;99.90;;;;;;5056400;28;20204;-76
2024/01/21 06:52:44;;;;;;;7.50;2.45;;;-10.10;99.90;;;;;;5063172;28;20194;-77
2024/01/21 06:55:11;;;;;;;5.28;3.78;;;-10.00;99.90;;;;;;5049109;28;20266;-77
2024/01/21 06:57:39;;;;;;;7.53;3.05;;;-10.00;99.90;;;;;;5063925;28;20284;-78
2024/01/21 07:00:11;;;;;;;22.52;8.15;;;-9.80;99.90;;;;;;5059340;28;20209;-77
2024/01/21 07:02:38;;;;;;;32.88;15.43;;;-9.60;99.90;;;;;;5049381;28;20207;-77
2024/01/21 07:05:05;;;;;;;11.25;6.78;;;-9.40;99.90;;;;;;5057969;28;20219;-78
2024/01/21 07:07:32;;;;;;;8.05;5.43;;;-9.30;99.90;;;;;;5047379;28;20232;-76
2024/01/21 07:09:59;;;;;;;5.88;3.03;;;-9.10;99.90;;;;;;5060572;28;20222;-77
2024/01/21 07:12:26;;;;;;;5.90;2.88;;;-9.00;99.90;;;;;;5051221;28;20824;-77
2024/01/21 07:14:53;;;;;;;5.10;3.65;;;-8.90;99.90;;;;;;5059731;28;20211;-77
2024/01/21 07:17:22;;;;;;;8.00;3.13;;;-9.00;99.90;;;;;;5052274;28;20235;-78
2024/01/21 07:19:52;;;;;;;7.70;3.78;;;-9.00;99.90;;;;;;5055027;28;20227;-76
2024/01/21 07:22:19;;;;;;;6.47;3.78;;;-9.10;99.90;;;;;;5060359;28;20235;-78
2024/01/21 07:24:46;;;;;;;3.47;3.17;;;-9.00;99.90;;;;;;5053309;28;20310;-78
2024/01/21 07:27:13;;;;;;;3.22;2.70;;;-8.90;99.90;;;;;;5061850;28;20242;-78
2024/01/21 07:29:41;;;;;;;5.18;3.47;;;-8.80;99.90;;;;;;5063917;28;20234;-79
2024/01/21 07:32:09;;;;;;;6.15;2.90;;;-8.60;99.90;;;;;;5064075;28;20260;-80
2024/01/21 07:34:37;;;;;;;4.75;2.58;;;-8.40;99.90;;;;;;5068758;28;20225;-78
2024/01/21 07:37:04;;;;;;;5.90;3.85;;;-8.30;99.90;;;;;;5065621;28;20201;-78
2024/01/21 07:39:31;;;;;;;4.80;3.55;;;-8.30;99.90;;;;;;5069084;28;20187;-79
2024/01/21 07:41:58;;;;;;;6.40;4.28;;;-8.30;99.90;;;;;;5059557;28;20232;-80
2024/01/21 07:44:25;;;;;;;9.50;5.20;;;-8.20;99.90;;;;;;5054484;28;20389;-80
2024/01/21 07:46:52;;;;;;;7.55;5.63;;;-8.10;99.90;;;;;;5058284;28;20650;-79
2024/01/21 07:49:19;;;;;;;12.90;6.13;;;-8.00;99.90;;;;;;5064397;28;20197;-80
2024/01/21 07:51:47;;;;;;;9.00;4.70;;;-7.90;99.90;;;;;;5066631;28;20272;-79
2024/01/21 07:54:14;;;;;;;8.68;4.40;;;-7.80;99.90;;;;;;5065369;28;20242;-79
2024/01/21 07:56:41;;;;;;;5.18;4.65;;;-7.70;99.90;;;;;;5062114;28;20199;-78
2024/01/21 07:59:08;;;;;;;7.40;5.78;;;-7.70;99.90;;;;;;5068069;28;20319;-76
2024/01/21 08:01:35;;;;;;;6.13;4.45;;;-7.60;99.90;;;;;;5067719;28;20200;-80
2024/01/21 08:04:02;;;;;;;9.75;5.07;;;-7.50;99.90;;;;;;5062082;28;20206;-80
2024/01/21 08:06:29;;;;;;;5.88;4.25;;;-7.40;99.90;;;;;;5062419;28;20205;-78
2024/01/21 08:08:57;;;;;;;9.30;5.20;;;-7.30;99.90;;;;;;5055987;28;20198;-78
2024/01/21 08:11:24;;;;;;;8.27;5.05;;;-7.20;99.90;;;;;;5057619;28;20287;-78
2024/01/21 08:13:51;;;;;;;8.82;5.47;;;-7.00;99.90;;;;;;5059054;28;20204;-78
2024/01/21 08:16:18;;;;;;;6.43;5.50;;;-7.00;99.90;;;;;;5053516;28;20195;-81
2024/01/21 08:18:45;;;;;;;5.93;5.22;;;-6.90;99.90;;;;;;5062844;28;20213;-79
2024/01/21 08:21:13;;;;;;;5.45;4.93;;;-6.90;99.90;;;;;;5058226;28;20280;-78
2024/01/21 08:23:41;;;;;;;9.05;5.47;;;-7.00;99.90;;;;;;5059724;28;20556;-78
2024/01/21 08:26:10;;;;;;;6.50;4.38;;;-7.10;99.90;;;;;;5064902;28;20317;-78
2024/01/21 08:28:38;;;;;;;7.60;5.80;;;-7.00;99.90;;;;;;5068236;28;20311;-80
2024/01/21 08:31:05;;;;;;;8.32;5.97;;;-7.00;99.90;;;;;;5056971;28;20250;-79
2024/01/21 08:33:35;;;;;;;4.07;3.53;;;-6.90;99.90;;;;;;5066178;28;20581;-78
2024/01/21 08:36:02;;;;;;;7.78;5.60;;;-6.70;99.90;;;;;;5060162;28;20795;-81
2024/01/21 08:38:29;;;;;;;6.00;4.53;;;-6.50;99.90;;;;;;5069791;28;20627;-78
2024/01/21 08:40:56;;;;;;;5.80;4.35;;;-6.50;99.90;;;;;;5057927;28;20202;-80
2024/01/21 08:43:24;;;;;;;9.88;5.55;;;-6.40;99.90;;;;;;5053074;28;20759;-78
2024/01/21 08:45:51;;;;;;;8.98;5.13;;;-6.20;99.90;;;;;;5056383;28;20246;-81
2024/01/21 08:48:18;;;;;;;9.75;4.35;;;-6.10;99.90;;;;;;5058415;28;20252;-79
2024/01/21 08:50:45;;;;;;;6.18;5.15;;;-6.00;99.90;;;;;;5061658;28;20653;-78
2024/01/21 08:53:12;;;;;;;7.40;4.40;;;-6.00;99.90;;;;;;5064035;28;20202;-80
2024/01/21 08:55:39;;;;;;;7.47;5.57;;;-5.90;99.90;;;;;;5050187;28;20717;-78
2024/01/21 08:58:06;;;;;;;6.95;4.68;;;-5.70;99.90;;;;;;5060429;28;20287;-78
2024/01/21 09:00:35;;;;;;;10.25;9.18;;;-5.70;99.90;;;;;;5058188;28;20251;-81
2024/01/21 09:03:02;;;;;;;15.48;9.50;;;-5.70;99.90;;;;;;5061800;28;20235;-78
2024/01/21 09:05:29;;;;;;;8.05;6.25;;;-5.60;99.90;;;;;;5062811;28;20260;-81
2024/01/21 09:07:56;;;;;;;8.20;6.20;;;-5.50;99.90;;;;;;5048535;28;20239;-78
2024/01/21 09:10:23;;;;;;;8.82;7.97;;;-5.50;99.90;;;;;;5050691;28;20199;-81
2024/01/21 09:12:50;;;;;;;6.28;5.55;;;-5.50;99.90;;;;;;5055922;28;20199;-79
2024/01/21 09:15:21;;;;;;;5.95;5.10;;;-5.70;99.90;;;;;;5061904;28;20672;-80
2024/01/21 09:17:52;;;;;;;5.32;3.60;;;-5.60;99.90;;;;;;5057417;28;20202;-78
2024/01/21 09:20:19;;;;;;;9.82;4.78;;;-5.50;99.90;;;;;;5062200;28;20205;-79
2024/01/21 09:22:46;;;;;;;5.18;3.35;;;-5.50;99.90;;;;;;5054817;28;20596;-79
2024/01/21 09:25:13;;;;;;;8.10;4.13;;;-5.40;99.90;;;;;;5064053;28;20271;-78
2024/01/21 09:27:40;;;;;;;4.25;3.25;;;-5.20;99.90;;;;;;5063942;28;20258;-82
2024/01/21 09:30:09;;;;;;;5.15;4.63;;;-5.10;99.90;;;;;;5057685;28;20217;-77
2024/01/21 09:32:36;;;;;;;3.90;3.60;;;-5.10;99.90;;;;;;5067437;28;20236;-78
2024/01/21 09:35:04;;;;;;;3.58;2.38;;;-5.00;99.90;;;;;;5052054;28;20255;-78
2024/01/21 09:37:31;;;;;;;4.53;3.00;;;-5.10;99.90;;;;;;5059457;28;20906;-77
2024/01/21 09:39:58;;;;;;;3.92;2.80;;;-5.10;99.90;;;;;;5060725;28;20270;-78
2024/01/21 09:42:26;;;;;;;2.38;2.08;;;-5.00;99.90;;;;;;5053014;28;20240;-77
2024/01/21 09:44:54;;;;;;;2.47;2.28;;;-5.00;99.90;;;;;;5049126;28;20238;-77
2024/01/21 09:47:22;;;;;;;4.20;2.53;;;-4.90;99.90;;;;;;5063119;28;20252;-80
2024/01/21 09:49:49;;;;;;;2.20;1.92;;;-4.70;99.90;;;;;;5062626;28;20282;-78
2024/01/21 09:52:18;;;;;;;3.33;3.03;;;-4.50;99.90;;;;;;5063902;28;20282;-79
2024/01/21 09:54:46;;;;;;;3.63;2.70;;;-4.50;99.90;;;;;;5052248;28;20213;-77
2024/01/21 09:57:13;;;;;;;4.53;2.97;;;-4.50;99.90;;;;;;5065093;28;20283;-81
2024/01/21 09:59:41;;;;;;;5.20;2.92;;;-4.50;99.90;;;;;;5066524;28;20200;-81
2024/01/21 10:02:15;;;;;;;3.05;2.25;;;-4.50;99.90;;;;;;5057120;28;20206;-80
2024/01/21 10:04:42;;;;;;;3.10;2.47;;;-4.40;99.90;;;;;;5065839;28;20205;-82
2024/01/21 10:07:10;;;;;;;3.45;1.90;;;-4.30;99.90;;;;;;5056795;28;20197;-78
2024/01/21 10:09:38;;;;;;;3.28;1.70;;;-4.20;99.90;;;;;;5056149;28;20196;-78
2024/01/21 10:12:07;;;;;;;2.20;1.67;;;-4.20;99.90;;;;;;5058541;28;20350;-78
2024/01/21 10:14:35;;;;;;;1.30;1.20;;;-4.10;99.90;;;;;;5060872;28;20243;-79
2024/01/21 10:17:03;;;;;;;5.35;2.03;;;-4.00;99.90;;;;;;5059981;28;20300;-79
2024/01/21 10:19:31;;;;;;;3.88;2.28;;;-3.90;99.90;;;;;;5047090;28;20288;-78
2024/01/21 10:22:09;;;;;;;2.33;2.13;;;-3.80;99.90;;;;;;5049569;28;20201;-80
2024/01/21 10:24:39;;;;;;;1.50;1.40;;;-3.70;99.90;;;;;;5052629;28;20279;-78
2024/01/21 10:27:07;;;;;;;2.95;2.10;;;-3.70;99.90;;;;;;5059573;28;20261;-78
2024/01/21 10:29:37;;;;;;;3.67;2.08;;;-3.80;99.90;;;;;;5058924;28;20278;-79
2024/01/21 10:32:04;;;;;;;3.00;1.70;;;-3.70;99.90;;;;;;5059387;28;20197;-78
2024/01/21 10:34:31;;;;;;;3.28;1.85;;;-3.60;99.90;;;;;;5051982;28;20252;-77
2024/01/21 10:37:04;;;;;;;2.78;1.77;;;-3.60;99.90;;;;;;5058937;28;20199;-77
2024/01/21 10:39:33;;;;;;;1.33;1.10;;;-3.60;99.90;;;;;;5066401;28;20189;-79
2024/01/21 10:42:02;;;;;;;2.28;1.63;;;-3.40;99.90;;;;;;5059776;28;20198;-80
2024/01/21 10:44:29;;;;;;;1.48;1.35;;;-3.30;99.90;;;;;;5061836;28;20265;-77
2024/01/21 10:46:57;;;;;;;2.00;1.50;;;-3.20;99.90;;;;;;5059805;28;20224;-78
2024/01/21 10:49:25;;;;;;;4.70;2.22;;;-3.10;99.90;;;;;;5051795;28;20228;-78
2024/01/21 10:51:53;;;;;;;1.75;1.65;;;-3.30;99.90;;;;;;5051209;28;20198;-78
2024/01/21 10:54:20;;;;;;;1.75;1.50;;;-3.10;99.90;;;;;;5050620;28;20227;-77
2024/01/21 10:56:49;;;;;;;2.03;1.83;;;-2.90;99.90;;;;;;5057335;28;20204;-78
2024/01/21 10:59:18;;;;;;;4.70;1.17;;;-2.90;99.90;;;;;;5060907;28;20204;-77
2024/01/21 11:01:45;;;;;;;1.90;1.55;;;-2.70;99.90;;;;;;5064655;28;20197;-78
2024/01/21 11:04:13;;;;;;;1.50;1.10;;;-2.60;99.90;;;;;;5049395;28;20240;-78
2024/01/21 11:06:42;;;;;;;3.65;2.22;;;-2.50;99.90;;;;;;5058062;28;20231;-77
2024/01/21 11:09:10;;;;;;;3.65;1.80;;;-2.50;99.90;;;;;;5071436;28;20230;-77
2024/01/21 11:11:42;;;;;;;2.25;1.55;;;-2.40;99.90;;;;;;5062394;28;20770;-77
2024/01/21 11:14:33;;;;;;;2.53;2.05;;;-2.30;99.90;;;;;;5068612;28;20291;-77
2024/01/21 11:17:02;;;;;;;2.95;1.13;;;-2.10;99.90;;;;;;5063502;28;20197;-78
2024/01/21 11:19:39;;;;;;;1.25;1.13;;;-2.10;99.90;;;;;;5063797;28;20208;-77
2024/01/21 11:22:06;;;;;;;1.98;1.20;;;-2.00;99.90;;;;;;5067271;28;20283;-78
2024/01/21 11:24:33;;;;;;;2.50;2.25;;;-2.30;99.90;;;;;;5065042;28;20608;-78
2024/01/21 11:27:01;;;;;;;1.60;1.50;;;-2.10;99.90;;;;;;5062865;28;20240;-78
2024/01/21 11:29:29;;;;;;;3.40;1.33;;;-2.10;99.90;;;;;;5063516;28;20948;-78
2024/01/21 11:32:00;;;;;;;5.97;1.58;;;-2.00;99.90;;;;;;5066812;28;20616;-77
2024/01/21 11:34:30;;;;;;;2.97;2.03;;;-1.80;99.90;;;;;;5065366;28;20290;-77
2024/01/21 11:36:57;;;;;;;5.70;5.00;;;-1.70;99.90;;;;;;5053039;28;20209;-77
2024/01/21 11:39:24;;;;;;;7.70;6.90;;;-1.60;99.90;;;;;;5068492;28;20217;-78
2024/01/21 11:41:52;;;;;;;2.45;2.05;;;-1.40;99.90;;;;;;5055266;28;20195;-78
2024/01/21 11:44:22;;;;;;;2.55;1.60;;;-1.40;99.90;;;;;;5059139;28;20245;-78
2024/01/21 11:46:50;;;;;;;3.17;2.13;;;-1.40;99.90;;;;;;5063980;28;20221;-78
2024/01/21 11:49:18;;;;;;;3.17;2.55;;;-1.30;99.90;;;;;;5062022;28;20193;-78
2024/01/21 11:51:45;;;;;;;2.10;1.80;;;-1.20;98.90;;;;;;5054235;28;20682;-78
2024/01/21 11:54:13;;;;;;;2.47;2.28;;;-1.20;98.90;;;;;;5057046;28;20198;-77
2024/01/21 11:56:40;;;;;;;2.13;1.30;;;-1.30;98.90;;;;;;5068626;28;20288;-78
2024/01/21 11:59:09;;;;;;;4.22;1.98;;;-1.10;99.90;;;;;;5054114;28;20775;-77
2024/01/21 12:01:37;;;;;;;2.92;2.63;;;-1.10;98.60;;;;;;5057871;28;20207;-79
2024/01/21 12:04:05;;;;;;;2.65;1.65;;;-1.00;98.50;;;;;;5050751;28;20612;-77
2024/01/21 12:06:35;;;;;;;2.45;2.22;;;-1.00;97.70;;;;;;5062660;28;20306;-77
2024/01/21 12:09:03;;;;;;;4.40;1.55;;;-1.00;97.00;;;;;;5064328;28;20224;-77
2024/01/21 12:11:32;;;;;;;2.05;1.67;;;-0.80;97.50;;;;;;5061576;28;20557;-78
2024/01/21 12:13:59;;;;;;;5.00;2.92;;;-0.80;97.50;;;;;;5063568;28;20209;-77
2024/01/21 12:16:28;;;;;;;4.40;1.95;;;-0.90;96.10;;;;;;5065780;28;20318;-78
2024/01/21 12:18:56;;;;;;;4.87;2.30;;;-0.80;97.20;;;;;;5063667;28;20678;-77
2024/01/21 12:21:23;;;;;;;3.92;2.13;;;-0.70;97.30;;;;;;5070064;28;20968;-78
2024/01/21 12:23:53;;;;;;;1.42;1.30;;;-0.60;96.90;;;;;;5069292;28;20707;-78
2024/01/21 12:26:22;;;;;;;2.65;1.80;;;-0.40;97.40;;;;;;5063229;28;20217;-78
2024/01/21 12:28:56;;;;;;;3.13;2.08;;;-0.30;96.40;;;;;;5071571;28;20631;-78
2024/01/21 12:31:26;;;;;;;2.22;1.70;;;-0.40;95.80;;;;;;5061659;28;20209;-78
2024/01/21 12:33:53;;;;;;;2.25;2.05;;;-0.40;96.20;;;;;;5064834;28;20205;-78
2024/01/21 12:36:20;;;;;;;4.90;3.07;;;-0.30;95.50;;;;;;5065717;28;20202;-78
2024/01/21 12:38:48;;;;;;;3.60;2.50;;;-0.30;94.20;;;;;;5070216;28;20825;-77
2024/01/21 12:41:17;;;;;;;2.80;2.35;;;-0.20;94.80;;;;;;5073950;28;20464;-78
2024/01/21 12:43:44;;;;;;;4.53;3.05;;;0.00;94.80;;;;;;5062663;28;20648;-78
2024/01/21 12:46:11;;;;;;;5.40;3.30;;;-0.10;94.50;;;;;;5061169;28;20271;-78